Montgomery Regional Airport Airport (MGM)

 

Airport Diagram
Current Weather/Forecast (LIFR Conditions)
METAR KMGM 131053Z 00000KT 6SM BR OVC004 23/23 A3001 RMK AO2 SLP161 T02330228
TAF KMGM 130822Z 1308/1406 00000KT 3SM BR BKN002 TEMPO 1309/1313 1SM BR FM131400 VRB02KT P6SM FEW250 FM131800 28006KT P6SM SCT250 FM140100 VRB02KT P6SM SCT250

All Charts
General
Chart Name Download
AIRPORT DIAGRAM
TAKEOFF MINIMUMS
ALTERNATE MINIMUMS
RADAR MINIMUMS
HOT SPOT

Approaches
Chart Name Download
HI-ILS OR LOC RWY 10
ILS OR LOC RWY 10
ILS Y OR LOC RWY 28
ILS Z RWY 28
RNAV (GPS) RWY 03
RNAV (GPS) RWY 10
RNAV (GPS) RWY 28
VOR-A
HI-TACAN A
NDB RWY 10


Inbound Traffic (Arrivals)

No inbound traffic.


Outbound Traffic (Departures)

No outbound traffic.